EDT,Max TemperatureF,Mean TemperatureF,Min TemperatureF,Max Dew PointF,MeanDew PointF,Min DewpointF,Max Humidity, Mean Humidity, Min Humidity, Max Sea Level PressureIn, Mean Sea Level PressureIn, Min Sea Level PressureIn, Max VisibilityMiles, Mean VisibilityMiles, Min VisibilityMiles, Max Wind SpeedMPH, Mean Wind SpeedMPH, Max Gust SpeedMPH,PrecipitationIn, CloudCover, Events, WindDirDegrees
2013-4-1,61,49,37,51,38,32,99,65,36,30.03,29.96,29.88,10,8,0,14,4,24,0.00,5,Fog-Rain,329
2013-4-2,60,50,39,31,17,2,58,32,11,30.15,30.10,30.02,10,10,10,13,5,21,0.00,3,,339
2013-4-3,61,48,36,30,23,19,71,37,21,30.21,30.16,30.11,10,10,10,7,3,,0.00,4,,154
2013-4-4,50,44,37,38,34,21,96,78,31,30.20,30.09,29.94,10,6,1,7,1,,0.84,8,Rain,227
2013-4-5,61,48,36,40,35,25,97,68,25,30.10,29.98,29.92,10,9,5,13,3,17,0.00,4,,318
2013-4-6,67,48,28,37,30,24,96,61,20,30.22,30.16,30.10,10,10,7,10,1,16,0.00,0,,151
2013-4-7,68,50,32,42,36,31,95,62,31,30.22,30.16,30.10,10,10,7,16,3,23,0.00,0,,138
2013-4-8,73,57,41,49,43,39,93,63,33,30.17,30.13,30.08,10,10,10,13,2,20,0.00,4,,157
2013-4-9,80,60,41,52,46,40,97,66,31,30.24,30.17,30.12,10,9,2,12,2,18,0.00,2,,139
2013-4-10,82,62,41,54,47,41,97,63,27,30.18,30.09,29.99,10,9,4,10,2,16,0.00,0,,138
2013-4-11,73,62,51,61,53,48,97,71,41,30.00,29.89,29.72,10,9,2,12,3,20,0.74,4,Rain,150
2013-4-12,65,54,44,58,46,33,100,67,33,29.95,29.79,29.67,10,9,3,15,4,20,0.57,3,Rain,338
2013-4-13,70,52,35,38,30,16,96,52,14,30.08,30.00,29.94,10,10,10,13,3,20,0.00,0,,338
2013-4-14,65,49,33,49,38,32,95,68,31,30.12,30.06,29.99,10,10,5,10,1,18,0.01,3,Rain,164
2013-4-15,75,62,50,53,51,49,99,76,44,30.21,30.06,29.98,10,9,4,10,1,17,0.05,4,,137
2013-4-16,78,64,49,57,53,49,100,72,41,30.30,30.23,30.18,10,9,4,10,2,18,0.00,5,,124
2013-4-17,80,68,55,60,56,54,99,75,43,30.28,30.22,30.14,10,10,7,9,1,,0.01,5,Rain,120
2013-4-18,73,65,57,59,55,51,100,72,45,30.15,30.09,29.96,10,10,7,9,2,22,0.00,6,Rain,163
2013-4-19,67,55,43,62,51,30,97,76,57,30.02,29.87,29.78,10,9,2,14,8,28,0.81,5,Rain,166
2013-4-20,59,48,36,32,25,21,85,47,23,30.27,30.15,30.03,10,10,10,14,7,25,0.00,0,,301
2013-4-21,64,47,30,35,30,26,95,56,25,30.39,30.33,30.26,10,10,10,9,2,16,0.00,0,,145
2013-4-22,68,50,31,38,34,30,97,63,25,30.37,30.28,30.15,10,10,4,12,1,18,0.00,0,,150
2013-4-23,72,52,32,43,36,31,98,60,24,30.26,30.18,30.08,10,10,5,13,1,18,0.00,0,,139
2013-4-24,69,55,41,58,48,39,95,77,46,30.15,30.10,30.06,10,10,3,12,2,22,0.05,6,Rain,179
2013-4-25,66,51,36,46,28,3,95,52,9,30.35,30.24,30.14,10,10,10,13,4,18,0.00,2,,299
2013-4-26,70,50,29,45,31,26,93,54,21,30.43,30.36,30.28,10,10,7,8,1,,0.00,1,Rain,151
2013-4-27,55,51,47,50,47,41,98,89,57,30.39,30.33,30.23,10,7,1,6,1,,0.91,8,Rain,130
2013-4-28,52,50,47,53,50,47,100,99,96,30.24,30.13,30.01,10,7,1,8,1,,1.88,8,Rain,91
2013-4-29,74,60,47,54,49,39,100,74,28,30.06,30.01,29.93,10,9,0,8,1,,0.02,5,Fog-Rain,56
2013-4-30,76,60,44,57,48,43,98,73,34,30.17,30.07,30.01,10,7,0,9,1,18,0.00,4,Fog,153